Time;durP1;ratioP1;P1;durP2;ratioP2;P2;SDS_P1;SDS_P2;PMS_P1;PMS_P2;Temp;Humidity;BMP_temperature;BMP_pressure;BME280_temperature;BME280_humidity;BME280_pressure;Samples;Min_cycle;Max_cycle;Signal;HPM_P1;HPM_P2
2023/01/01 00:00:39;;;;;;;4.07;3.43;;;11.40;82.20;10.80;96263.00;;;;5054595;28;20655;-56
2023/01/01 00:03:07;;;;;;;4.67;4.20;;;11.50;82.20;10.70;96252.00;;;;5054256;28;20188;-57
2023/01/01 00:05:37;;;;;;;2.67;2.37;;;;;10.70;96262.00;;;;5054182;28;20211;-57
2023/01/01 00:08:05;;;;;;;2.43;2.30;;;;;10.80;96264.00;;;;5054270;28;20184;-57
2023/01/01 00:10:31;;;;;;;1.53;1.43;;;11.60;80.50;10.90;96265.00;;;;5036752;28;20224;-57
2023/01/01 00:12:59;;;;;;;6.70;3.30;;;;;10.80;96255.00;;;;5054085;28;20188;-58
2023/01/01 00:15:27;;;;;;;3.23;2.97;;;;;10.80;96250.00;;;;5054141;28;20239;-58
2023/01/01 00:17:55;;;;;;;2.27;2.07;;;11.60;79.60;10.90;96242.00;;;;5054278;28;20192;-58
2023/01/01 00:20:23;;;;;;;3.13;2.90;;;11.60;79.30;10.90;96235.00;;;;5053891;28;20203;-57
2023/01/01 00:22:50;;;;;;;2.13;1.93;;;11.80;77.70;11.10;96251.00;;;;5053766;28;20208;-58
2023/01/01 00:25:18;;;;;;;1.80;1.70;;;11.70;83.30;11.50;96253.00;;;;5054069;28;20208;-58
2023/01/01 00:27:45;;;;;;;3.47;3.17;;;12.00;76.30;11.50;96243.00;;;;5054014;28;20199;-58
2023/01/01 00:30:13;;;;;;;3.63;3.30;;;12.20;72.80;11.70;96242.00;;;;5053605;28;20235;-58
2023/01/01 00:32:40;;;;;;;2.33;2.13;;;;;11.70;96240.00;;;;5054196;28;20192;-58
2023/01/01 00:35:09;;;;;;;3.73;2.40;;;12.40;70.20;11.90;96240.00;;;;5053690;28;20718;-58
2023/01/01 00:37:38;;;;;;;2.27;2.17;;;;;12.10;96248.00;;;;5035823;28;20199;-57
2023/01/01 00:40:06;;;;;;;3.43;2.67;;;;;12.20;96250.00;;;;5035736;28;20196;-58
2023/01/01 00:42:33;;;;;;;1.67;1.60;;;12.90;65.60;12.30;96248.00;;;;5053585;28;20192;-58
2023/01/01 00:45:01;;;;;;;1.10;1.10;;;;;12.40;96240.00;;;;5053718;28;20691;-60
2023/01/01 00:47:28;;;;;;;2.57;2.30;;;13.00;64.00;12.50;96240.00;;;;5053848;28;20612;-58
2023/01/01 00:49:55;;;;;;;1.83;1.73;;;13.10;63.50;12.40;96242.00;;;;5053896;28;20207;-58
2023/01/01 00:52:22;;;;;;;2.60;2.50;;;13.00;63.00;12.50;96245.00;;;;5054103;28;20196;-59
2023/01/01 00:54:50;;;;;;;2.87;2.07;;;13.20;62.50;12.50;96247.00;;;;5053333;28;20215;-58
2023/01/01 00:57:17;;;;;;;1.00;1.00;;;13.20;62.10;12.50;96238.00;;;;5053889;28;20188;-58
2023/01/01 00:59:44;;;;;;;2.03;1.77;;;13.20;62.10;12.60;96239.00;;;;5036162;28;20196;-58
2023/01/01 01:02:11;;;;;;;3.80;2.37;;;13.10;61.80;12.50;96237.00;;;;5053292;28;20196;-58
2023/01/01 01:04:38;;;;;;;1.47;1.37;;;13.20;61.70;12.40;96237.00;;;;5053171;28;20223;-57
2023/01/01 01:07:05;;;;;;;1.60;1.50;;;13.10;62.60;12.50;96240.00;;;;5053180;28;20196;-57
2023/01/01 01:09:32;;;;;;;3.30;3.00;;;13.10;61.40;12.40;96235.00;;;;5052810;28;20215;-58
2023/01/01 01:12:01;;;;;;;1.87;1.77;;;13.00;61.70;12.30;96243.00;;;;5053300;28;20702;-58
2023/01/01 01:14:28;;;;;;;1.90;1.63;;;13.00;62.60;12.30;96250.00;;;;5053581;28;20241;-59
2023/01/01 01:16:55;;;;;;;5.57;2.87;;;13.00;62.40;12.10;96242.00;;;;5052919;28;20199;-59
2023/01/01 01:19:24;;;;;;;1.87;1.77;;;12.90;62.90;12.00;96241.00;;;;5034987;28;20655;-57
2023/01/01 01:21:51;;;;;;;1.73;1.63;;;12.80;63.40;12.00;96235.00;;;;5052887;28;20685;-57
2023/01/01 01:24:19;;;;;;;2.13;2.03;;;12.60;63.50;11.80;96245.00;;;;5052936;28;20691;-56
2023/01/01 01:26:46;;;;;;;1.97;1.87;;;12.60;64.20;11.80;96242.00;;;;5052829;28;20196;-57
2023/01/01 01:29:14;;;;;;;4.17;3.00;;;12.50;64.70;11.80;96247.00;;;;5052773;28;20191;-58
2023/01/01 01:31:41;;;;;;;1.77;1.67;;;;;12.00;96248.00;;;;5052647;28;20212;-57
2023/01/01 01:34:08;;;;;;;2.03;1.83;;;12.60;63.70;12.00;96248.00;;;;5034730;28;20223;-57
2023/01/01 01:36:36;;;;;;;2.50;2.33;;;12.70;65.20;12.00;96250.00;;;;5052949;28;20578;-57
2023/01/01 01:39:03;;;;;;;3.87;3.10;;;;;11.80;96240.00;;;;5052985;28;20184;-57
2023/01/01 01:41:30;;;;;;;1.83;1.73;;;;;11.60;96241.00;;;;5052878;28;20188;-57
2023/01/01 01:44:01;;;;;;;3.23;1.97;;;12.50;66.90;11.60;96246.00;;;;5052313;28;20699;-57
2023/01/01 01:46:39;;;;;;;1.63;1.53;;;12.30;64.30;11.50;96247.00;;;;5052673;28;20199;-57
2023/01/01 01:49:14;;;;;;;2.97;1.30;;;12.30;64.90;11.50;96250.00;;;;5052564;28;20230;-57
2023/01/01 01:51:43;;;;;;;1.60;1.50;;;12.20;65.00;11.30;96259.00;;;;5052523;28;20283;-57
2023/01/01 01:54:17;;;;;;;1.80;1.70;;;12.20;66.00;11.40;96257.00;;;;5052670;28;20759;-57
2023/01/01 01:56:52;;;;;;;2.53;2.33;;;12.10;66.00;11.30;96258.00;;;;5034571;28;20184;-57
2023/01/01 01:59:24;;;;;;;2.83;2.63;;;12.10;66.40;11.30;96254.00;;;;5052740;28;20492;-57
2023/01/01 02:01:53;;;;;;;3.67;2.27;;;12.00;66.30;11.00;96259.00;;;;5052697;28;20581;-57
2023/01/01 02:04:21;;;;;;;2.20;1.93;;;11.80;66.90;11.00;96273.00;;;;5052394;28;20212;-57
2023/01/01 02:06:50;;;;;;;2.00;1.90;;;11.80;67.30;11.00;96271.00;;;;5052378;28;20341;-57
2023/01/01 02:09:18;;;;;;;2.03;1.73;;;11.70;69.90;10.80;96276.00;;;;5052359;28;20242;-57
2023/01/01 02:11:45;;;;;;;2.67;2.47;;;11.60;72.20;10.60;96270.00;;;;5052239;28;20764;-57
2023/01/01 02:14:12;;;;;;;4.93;2.57;;;11.30;70.90;10.60;96283.00;;;;5052213;28;20212;-57
2023/01/01 02:16:47;;;;;;;3.20;2.93;;;11.30;71.80;10.50;96266.00;;;;5052761;28;20242;-57
2023/01/01 02:19:29;;;;;;;1.63;1.60;;;;;10.60;96273.00;;;;5052294;28;20657;-57
2023/01/01 02:22:06;;;;;;;2.50;2.40;;;11.30;71.60;10.80;96275.00;;;;5054616;28;20173;-57
2023/01/01 02:24:48;;;;;;;3.67;2.13;;;;;10.70;96266.00;;;;5056515;28;20216;-57
2023/01/01 02:27:28;;;;;;;1.67;1.57;;;11.40;72.10;10.80;96268.00;;;;5056229;28;20177;-61
2023/01/01 02:30:02;;;;;;;3.10;2.90;;;11.40;71.60;10.70;96268.00;;;;5056477;28;20230;-58
2023/01/01 02:32:36;;;;;;;2.63;2.43;;;11.40;72.10;10.60;96260.00;;;;5056401;28;20180;-58
2023/01/01 02:37:55;;;;;;;1.60;1.50;;;;;10.40;96260.00;;;;5054961;28;20199;-57
2023/01/01 02:40:26;;;;;;;2.20;2.10;;;11.20;90.90;10.60;96262.00;;;;5055775;28;20185;-57
2023/01/01 02:42:57;;;;;;;2.53;2.33;;;11.40;71.90;10.70;96249.00;;;;5055748;28;20168;-57
2023/01/01 02:45:25;;;;;;;4.67;2.37;;;11.40;71.60;11.10;96252.00;;;;5055505;28;20216;-57
2023/01/01 02:47:52;;;;;;;0.97;0.97;;;11.60;69.70;11.40;96258.00;;;;5055620;28;20196;-57
2023/01/01 02:50:24;;;;;;;1.33;1.33;;;;;11.70;96253.00;;;;5055827;28;20199;-57
2023/01/01 02:53:04;;;;;;;0.80;0.80;;;;;11.70;96250.00;;;;5056100;28;20184;-57
2023/01/01 02:55:43;;;;;;;10.03;1.90;;;;;11.30;96265.00;;;;5055489;28;20220;-57
2023/01/01 03:01:16;;;;;;;7.83;1.87;;;12.30;63.40;11.70;96256.00;;;;5037424;28;20285;-57
2023/01/01 03:03:57;;;;;;;0.80;0.80;;;12.30;63.00;11.70;96255.00;;;;5055401;28;20628;-57
2023/01/01 03:06:37;;;;;;;0.80;0.80;;;12.40;62.10;11.90;96255.00;;;;5055809;28;20721;-57
2023/01/01 03:09:20;;;;;;;1.20;1.10;;;12.50;61.00;12.00;96252.00;;;;5055206;28;20187;-57
2023/01/01 03:12:01;;;;;;;1.57;1.47;;;12.60;60.60;11.90;96246.00;;;;5055446;28;20200;-57
2023/01/01 03:14:45;;;;;;;1.13;1.10;;;12.60;60.20;12.00;96255.00;;;;5055123;28;20254;-57
2023/01/01 03:17:25;;;;;;;1.40;1.30;;;12.60;59.70;11.80;96261.00;;;;5055105;28;20181;-57
2023/01/01 03:19:55;;;;;;;1.27;1.20;;;;;11.80;96253.00;;;;5055602;28;20184;-58
2023/01/01 03:22:31;;;;;;;17.67;1.40;;;12.50;60.20;11.70;96259.00;;;;5054964;28;20336;-57
2023/01/01 03:25:04;;;;;;;1.57;1.47;;;12.40;60.10;11.80;96268.00;;;;5054924;28;20212;-57
2023/01/01 03:27:36;;;;;;;1.47;1.37;;;12.30;61.00;11.60;96273.00;;;;5054808;28;20176;-57
2023/01/01 03:30:08;;;;;;;0.80;0.80;;;;;11.70;96264.00;;;;5055025;28;20639;-57
2023/01/01 03:33:02;;;;;;;1.67;1.57;;;12.40;60.40;11.70;96274.00;;;;5054196;28;20681;-57
2023/01/01 03:35:37;;;;;;;1.73;1.63;;;12.30;60.20;11.60;96281.00;;;;5054691;28;20208;-57
2023/01/01 03:38:11;;;;;;;1.63;1.53;;;12.30;60.50;11.50;96283.00;;;;5055294;28;20180;-57
2023/01/01 03:40:40;;;;;;;1.20;1.17;;;12.20;60.60;11.60;96279.00;;;;5054686;28;20322;-57
2023/01/01 03:43:16;;;;;;;0.90;0.90;;;12.20;60.30;11.60;96284.00;;;;5054703;28;20374;-57
2023/01/01 03:45:47;;;;;;;1.10;1.10;;;12.30;60.30;11.70;96281.00;;;;5054381;28;20230;-57
2023/01/01 03:48:16;;;;;;;1.00;1.00;;;12.30;60.30;11.50;96288.00;;;;5054648;28;20196;-57
2023/01/01 03:50:58;;;;;;;0.70;0.70;;;12.30;60.10;11.80;96270.00;;;;5054312;28;20223;-57
2023/01/01 03:53:39;;;;;;;0.83;0.83;;;12.40;60.40;11.70;96280.00;;;;5054741;28;20187;-57
2023/01/01 03:56:16;;;;;;;1.30;1.30;;;12.40;59.60;11.50;96290.00;;;;5054320;28;20187;-57
2023/01/01 03:58:54;;;;;;;0.90;0.90;;;12.30;59.60;11.70;96279.00;;;;5054340;28;20184;-57
2023/01/01 04:01:27;;;;;;;1.20;0.90;;;12.40;60.10;11.90;96288.00;;;;5054997;28;20555;-57
2023/01/01 04:03:58;;;;;;;0.67;0.67;;;12.40;95.20;11.80;96277.00;;;;5054323;28;20216;-57
2023/01/01 04:06:25;;;;;;;1.00;1.00;;;12.60;58.60;11.90;96297.00;;;;5054061;28;20196;-57
2023/01/01 04:08:58;;;;;;;0.70;0.70;;;12.50;58.60;11.90;96282.00;;;;5054108;28;20201;-60
2023/01/01 04:14:25;;;;;;;0.60;0.60;;;;;11.80;96282.00;;;;5053915;28;20219;-57
2023/01/01 04:16:52;;;;;;;0.80;0.80;;;12.50;59.10;11.70;96282.00;;;;5053988;28;20234;-57
2023/01/01 04:19:21;;;;;;;1.30;1.27;;;;;11.70;96284.00;;;;5054204;28;20559;-57
2023/01/01 04:21:48;;;;;;;0.50;0.50;;;12.30;59.10;11.50;96278.00;;;;5054083;28;20188;-57
2023/01/01 04:24:15;;;;;;;0.60;0.60;;;12.20;59.90;11.40;96276.00;;;;5053894;28;20204;-57
2023/01/01 04:26:42;;;;;;;0.80;0.80;;;12.20;60.10;11.50;96284.00;;;;5053999;28;20275;-57
2023/01/01 04:29:09;;;;;;;0.63;0.63;;;12.30;60.30;11.70;96286.00;;;;5053717;28;20195;-56
2023/01/01 04:31:38;;;;;;;0.60;0.60;;;12.40;60.10;11.70;96280.00;;;;5053576;28;20274;-56
2023/01/01 04:34:05;;;;;;;2.47;1.27;;;12.30;59.70;11.60;96280.00;;;;5054108;28;20220;-56
2023/01/01 04:36:34;;;;;;;1.03;1.03;;;12.40;59.60;11.80;96288.00;;;;5054098;28;20184;-57
2023/01/01 04:39:02;;;;;;;0.97;0.97;;;12.40;60.20;11.60;96284.00;;;;5053582;28;20188;-57
2023/01/01 04:41:29;;;;;;;0.93;0.93;;;12.30;60.10;11.50;96285.00;;;;5053801;28;20242;-57
2023/01/01 04:43:56;;;;;;;0.70;0.70;;;12.10;60.70;11.40;96294.00;;;;5052382;28;20212;-57
2023/01/01 04:46:24;;;;;;;0.60;0.60;;;12.10;61.10;11.40;96301.00;;;;5035498;28;20565;-57
2023/01/01 04:48:51;;;;;;;1.07;1.07;;;12.00;61.60;11.30;96301.00;;;;5053437;28;20202;-57
2023/01/01 04:51:21;;;;;;;0.90;0.90;;;12.00;61.60;11.20;96302.00;;;;5053508;28;20587;-57
2023/01/01 04:53:49;;;;;;;4.37;1.47;;;11.90;62.20;11.20;96306.00;;;;5053629;28;20627;-56
2023/01/01 04:56:20;;;;;;;0.63;0.63;;;12.00;62.10;11.20;96308.00;;;;5053488;28;20514;-57
2023/01/01 04:58:48;;;;;;;0.70;0.70;;;11.80;62.30;11.10;96308.00;;;;5053399;28;20177;-57
2023/01/01 05:01:18;;;;;;;1.17;1.17;;;;;11.10;96308.00;;;;5035163;28;20288;-57
2023/01/01 05:03:45;;;;;;;0.70;0.70;;;11.90;62.60;11.20;96311.00;;;;5052961;28;20222;-57
2023/01/01 05:06:15;;;;;;;0.70;0.70;;;11.90;63.30;11.20;96310.00;;;;5053056;28;20206;-57
2023/01/01 05:08:44;;;;;;;1.07;1.07;;;11.90;62.60;11.30;96305.00;;;;5053091;28;20265;-56
2023/01/01 05:11:15;;;;;;;2.63;1.70;;;11.80;62.20;11.20;96308.00;;;;5053099;28;20216;-56
2023/01/01 05:13:45;;;;;;;0.87;0.87;;;11.90;62.10;11.20;96308.00;;;;5053182;28;20620;-57
2023/01/01 05:16:14;;;;;;;0.50;0.50;;;12.00;62.40;11.30;96309.00;;;;5053231;28;20192;-56
2023/01/01 05:18:42;;;;;;;0.67;0.67;;;12.00;61.90;11.40;96316.00;;;;5052912;28;20261;-57
2023/01/01 05:21:12;;;;;;;0.80;0.80;;;12.00;62.50;11.50;96317.00;;;;5053113;28;20242;-56
2023/01/01 05:23:40;;;;;;;0.67;0.67;;;12.20;61.20;11.60;96321.00;;;;5053601;28;20541;-57
2023/01/01 05:26:13;;;;;;;0.60;0.60;;;12.30;60.80;11.60;96307.00;;;;5052740;28;20196;-57
2023/01/01 05:28:41;;;;;;;0.60;0.60;;;12.30;60.30;11.60;96314.00;;;;5052822;28;20180;-57
2023/01/01 05:31:10;;;;;;;0.93;0.93;;;12.30;60.50;11.60;96314.00;;;;5052897;28;20212;-57
2023/01/01 05:33:38;;;;;;;0.80;0.80;;;;;11.70;96316.00;;;;5052623;28;20191;-57
2023/01/01 05:36:08;;;;;;;1.30;1.13;;;12.30;60.00;11.70;96313.00;;;;5053047;28;20258;-57
2023/01/01 05:38:36;;;;;;;1.40;1.03;;;12.30;60.00;11.50;96320.00;;;;5053172;28;20744;-57
2023/01/01 05:41:07;;;;;;;0.60;0.60;;;12.20;59.90;11.40;96330.00;;;;5052938;28;20588;-57
2023/01/01 05:43:35;;;;;;;0.67;0.67;;;12.00;60.00;11.20;96330.00;;;;5052921;28;20615;-57
2023/01/01 05:46:05;;;;;;;1.37;1.27;;;11.90;61.00;11.00;96340.00;;;;5052506;28;20207;-57
2023/01/01 05:48:33;;;;;;;0.90;0.90;;;11.70;61.60;10.80;96337.00;;;;5052841;28;20191;-56
2023/01/01 05:51:05;;;;;;;0.87;0.87;;;11.60;62.30;10.70;96314.00;;;;5053008;28;20234;-57
2023/01/01 05:53:33;;;;;;;1.00;1.00;;;11.50;63.00;10.80;96334.00;;;;5052606;28;20188;-57
2023/01/01 05:56:00;;;;;;;0.90;0.90;;;11.50;63.00;10.70;96336.00;;;;5054930;28;20196;-57
2023/01/01 05:58:28;;;;;;;0.87;0.87;;;11.50;63.60;10.90;96339.00;;;;5056855;28;20669;-57
2023/01/01 06:01:05;;;;;;;0.97;0.97;;;11.60;63.00;10.90;96341.00;;;;5056547;28;20250;-57
2023/01/01 06:03:32;;;;;;;1.10;1.10;;;;;10.80;96343.00;;;;5056800;28;20172;-56
2023/01/01 06:06:04;;;;;;;0.90;0.90;;;;;10.80;96343.00;;;;5056390;28;20196;-57
2023/01/01 06:08:32;;;;;;;1.57;0.90;;;;;10.70;96342.00;;;;5056590;28;20180;-56
2023/01/01 06:11:00;;;;;;;0.67;0.67;;;;;10.70;96346.00;;;;5056812;28;20199;-57
2023/01/01 06:13:28;;;;;;;0.83;0.83;;;11.50;63.70;10.50;96345.00;;;;5056175;28;20216;-57
2023/01/01 06:15:58;;;;;;;0.83;0.83;;;11.30;65.10;10.40;96352.00;;;;5056160;28;20216;-56
2023/01/01 06:18:30;;;;;;;0.80;0.80;;;11.30;65.20;10.60;96357.00;;;;5056728;28;20172;-57
2023/01/01 06:21:05;;;;;;;0.73;0.73;;;11.30;66.60;10.60;96352.00;;;;5038241;28;20200;-57
2023/01/01 06:23:32;;;;;;;0.80;0.80;;;11.30;64.90;10.60;96347.00;;;;5056425;28;20595;-57
2023/01/01 06:26:08;;;;;;;0.60;0.60;;;11.30;65.00;10.40;96350.00;;;;5056149;28;20192;-57
2023/01/01 06:28:36;;;;;;;0.50;0.50;;;11.10;64.90;10.40;96356.00;;;;5056343;28;20176;-56
2023/01/01 06:31:08;;;;;;;0.90;0.90;;;11.20;65.70;10.30;96350.00;;;;5056017;28;20305;-57
2023/01/01 06:33:35;;;;;;;0.83;0.83;;;11.10;66.10;10.30;96357.00;;;;5055786;28;20204;-57
2023/01/01 06:36:04;;;;;;;0.50;0.50;;;11.10;66.30;10.50;96350.00;;;;5055964;28;20246;-58
2023/01/01 06:38:32;;;;;;;0.50;0.50;;;11.20;64.90;10.40;96361.00;;;;5055833;28;20203;-57
2023/01/01 06:41:00;;;;;;;1.10;1.00;;;11.20;64.60;10.30;96362.00;;;;5055819;28;20215;-57
2023/01/01 06:43:30;;;;;;;0.83;0.83;;;11.10;65.40;10.50;96362.00;;;;5055777;28;20195;-56
2023/01/01 06:46:02;;;;;;;0.70;0.70;;;11.10;66.00;10.40;96362.00;;;;5055467;28;20215;-57
2023/01/01 06:48:33;;;;;;;1.23;1.13;;;11.20;65.40;10.30;96363.00;;;;5055910;28;20188;-57
2023/01/01 06:51:06;;;;;;;0.80;0.80;;;11.10;65.20;10.30;96351.00;;;;5055875;28;20689;-57
2023/01/01 06:53:34;;;;;;;0.97;0.90;;;11.10;66.00;10.30;96350.00;;;;5055590;28;20254;-57
2023/01/01 06:56:01;;;;;;;1.07;0.90;;;10.90;65.60;10.20;96344.00;;;;5055981;28;20558;-57
2023/01/01 06:58:29;;;;;;;0.97;0.97;;;11.10;65.60;10.20;96349.00;;;;5055702;28;20594;-57
2023/01/01 07:01:04;;;;;;;3.30;1.30;;;11.00;65.00;10.20;96347.00;;;;5055432;28;20199;-57
2023/01/01 07:03:33;;;;;;;0.80;0.80;;;11.00;65.80;10.20;96359.00;;;;5055713;28;20188;-57
2023/01/01 07:06:00;;;;;;;0.80;0.80;;;11.00;65.80;10.20;96352.00;;;;5055336;28;20212;-57
2023/01/01 07:08:27;;;;;;;1.90;1.33;;;11.00;64.70;10.10;96360.00;;;;5054619;28;20200;-57
2023/01/01 07:10:56;;;;;;;0.60;0.60;;;10.90;65.40;10.10;96364.00;;;;5055172;28;20188;-57
2023/01/01 07:13:24;;;;;;;0.70;0.70;;;11.00;66.00;10.10;96351.00;;;;5037182;28;20230;-57
2023/01/01 07:15:51;;;;;;;0.70;0.70;;;10.90;65.90;10.10;96352.00;;;;5055043;28;20298;-57
2023/01/01 07:18:19;;;;;;;0.50;0.50;;;10.90;65.50;10.20;96341.00;;;;5055033;28;20659;-57
2023/01/01 07:20:53;;;;;;;1.50;1.40;;;11.00;64.80;10.20;96359.00;;;;5055046;28;20195;-57
2023/01/01 07:23:20;;;;;;;0.50;0.50;;;11.00;65.50;10.30;96357.00;;;;5055011;28;20188;-57
2023/01/01 07:25:50;;;;;;;0.97;0.97;;;11.10;63.90;10.40;96366.00;;;;5055148;28;20613;-57
2023/01/01 07:28:17;;;;;;;0.70;0.70;;;11.10;64.60;10.30;96371.00;;;;5054963;28;20192;-57
2023/01/01 07:30:45;;;;;;;0.63;0.63;;;;;10.30;96380.00;;;;5054906;28;20211;-57
2023/01/01 07:33:13;;;;;;;0.60;0.60;;;11.10;64.20;10.30;96381.00;;;;5055029;28;20581;-57
2023/01/01 07:35:41;;;;;;;0.63;0.63;;;11.10;64.90;10.10;96373.00;;;;5036724;28;20222;-57
2023/01/01 07:38:09;;;;;;;0.60;0.60;;;11.00;64.90;10.10;96370.00;;;;5054991;28;20554;-58
2023/01/01 07:40:36;;;;;;;0.60;0.60;;;10.90;65.60;10.10;96374.00;;;;5054712;28;20199;-57
2023/01/01 07:43:03;;;;;;;0.80;0.80;;;10.90;65.70;10.20;96382.00;;;;5054665;28;20246;-57
2023/01/01 07:45:31;;;;;;;0.60;0.60;;;10.90;66.00;10.30;96383.00;;;;5054361;28;20212;-57
2023/01/01 07:47:59;;;;;;;0.40;0.40;;;11.00;65.30;10.30;96387.00;;;;5055071;28;20196;-59
2023/01/01 07:50:31;;;;;;;0.50;0.50;;;11.00;64.60;10.20;96394.00;;;;5036598;28;20590;-57
2023/01/01 07:52:58;;;;;;;0.90;0.90;;;11.10;64.40;10.30;96398.00;;;;5054456;28;20211;-58
2023/01/01 07:55:27;;;;;;;0.80;0.80;;;11.10;65.10;10.30;96400.00;;;;5054393;28;20215;-57
2023/01/01 07:57:54;;;;;;;0.50;0.50;;;11.10;65.20;10.30;96405.00;;;;5054651;28;20202;-57
2023/01/01 08:00:22;;;;;;;0.70;0.70;;;11.00;64.90;10.20;96409.00;;;;5054479;28;20623;-57
2023/01/01 08:02:49;;;;;;;0.60;0.60;;;11.00;65.30;10.20;96408.00;;;;5054239;28;20215;-57
2023/01/01 08:05:17;;;;;;;0.73;0.73;;;11.00;64.70;10.30;96408.00;;;;5054911;28;20277;-57
2023/01/01 08:07:47;;;;;;;0.90;0.90;;;11.00;65.40;10.40;96401.00;;;;5054131;28;20655;-57
2023/01/01 08:10:15;;;;;;;0.87;0.87;;;11.10;65.20;10.50;96418.00;;;;5054137;28;20192;-57
2023/01/01 08:12:44;;;;;;;1.23;1.23;;;11.30;64.90;10.90;96418.00;;;;5054505;28;20216;-57
2023/01/01 08:15:12;;;;;;;1.17;1.10;;;11.50;62.80;10.90;96415.00;;;;5054049;28;20215;-57
2023/01/01 08:17:40;;;;;;;1.03;0.80;;;11.60;63.70;11.00;96429.00;;;;5054257;28;20196;-57
2023/01/01 08:20:09;;;;;;;0.63;0.63;;;11.70;61.70;11.10;96429.00;;;;5054467;28;20230;-57
2023/01/01 08:22:36;;;;;;;1.27;1.23;;;11.70;62.40;11.10;96440.00;;;;5054342;28;20196;-57
2023/01/01 08:25:04;;;;;;;0.70;0.70;;;11.80;60.40;11.10;96429.00;;;;5053860;28;20208;-57
2023/01/01 08:27:31;;;;;;;0.70;0.70;;;11.80;61.30;11.20;96439.00;;;;5053813;28;20199;-57
2023/01/01 08:30:00;;;;;;;1.70;1.60;;;11.80;60.70;11.10;96438.00;;;;5054026;28;20192;-57
2023/01/01 08:32:27;;;;;;;1.30;1.30;;;11.80;60.70;11.10;96451.00;;;;5053626;28;20694;-57
2023/01/01 08:34:54;;;;;;;0.60;0.60;;;11.90;66.30;11.10;96441.00;;;;5053571;28;20204;-57
2023/01/01 08:37:22;;;;;;;1.40;1.40;;;11.90;60.00;11.30;96444.00;;;;5053651;28;20189;-57
2023/01/01 08:39:50;;;;;;;1.30;1.30;;;11.90;60.00;11.30;96444.00;;;;5053554;28;20180;-57
2023/01/01 08:42:18;;;;;;;1.30;0.80;;;12.00;60.10;11.40;96453.00;;;;5053533;28;20199;-57
2023/01/01 08:44:45;;;;;;;0.87;0.87;;;12.10;60.80;11.30;96456.00;;;;5053341;28;20223;-57
2023/01/01 08:47:23;;;;;;;2.03;1.13;;;;;11.50;96458.00;;;;5053697;28;20614;-60
2023/01/01 08:49:51;;;;;;;0.73;0.73;;;12.20;59.40;11.50;96456.00;;;;5053888;28;20246;-57
2023/01/01 08:52:19;;;;;;;0.73;0.73;;;12.20;59.40;11.60;96458.00;;;;5053505;28;20642;-57
2023/01/01 08:54:46;;;;;;;0.67;0.67;;;12.30;59.50;11.60;96459.00;;;;5053244;28;20687;-57
2023/01/01 08:57:13;;;;;;;0.83;0.83;;;12.40;59.20;11.90;96454.00;;;;5053286;28;20196;-57
2023/01/01 08:59:40;;;;;;;0.70;0.70;;;12.50;59.00;11.80;96456.00;;;;5053505;28;20637;-57
2023/01/01 09:02:08;;;;;;;0.87;0.87;;;12.50;59.70;11.90;96456.00;;;;5053234;28;20275;-57
2023/01/01 09:04:36;;;;;;;1.03;1.03;;;12.50;68.90;12.00;96453.00;;;;5053038;28;20251;-57
2023/01/01 09:07:04;;;;;;;1.13;1.13;;;12.70;58.60;12.10;96454.00;;;;5053162;28;20639;-57
2023/01/01 09:09:31;;;;;;;1.20;1.20;;;12.70;57.90;12.00;96463.00;;;;5053036;28;20191;-57
2023/01/01 09:12:04;;;;;;;0.90;0.90;;;12.70;58.00;12.10;96456.00;;;;5053241;28;20674;-57
2023/01/01 09:14:32;;;;;;;0.90;0.90;;;12.80;58.30;12.10;96461.00;;;;5053004;28;20217;-58
2023/01/01 09:16:59;;;;;;;0.90;0.90;;;12.70;57.80;12.00;96458.00;;;;5053008;28;20188;-57
2023/01/01 09:19:26;;;;;;;0.67;0.67;;;12.80;57.90;12.10;96457.00;;;;5052974;28;20192;-57
2023/01/01 09:21:55;;;;;;;1.30;1.20;;;12.80;58.60;12.10;96447.00;;;;5053015;28;20199;-57
2023/01/01 09:24:22;;;;;;;1.07;1.07;;;12.80;58.30;12.20;96446.00;;;;5053178;28;20396;-57
2023/01/01 09:26:50;;;;;;;0.93;0.90;;;12.90;57.30;12.20;96444.00;;;;5052875;28;20717;-57
2023/01/01 09:29:19;;;;;;;1.13;1.13;;;12.90;57.10;12.20;96451.00;;;;5052860;28;20215;-57
2023/01/01 09:31:47;;;;;;;0.83;0.83;;;12.90;57.50;12.50;96455.00;;;;5052454;28;20188;-57
2023/01/01 09:34:15;;;;;;;0.80;0.80;;;13.10;56.40;12.50;96456.00;;;;5052705;28;20299;-57
2023/01/01 09:36:42;;;;;;;1.90;1.80;;;13.10;54.90;12.60;96449.00;;;;5053057;28;20188;-57
2023/01/01 09:39:14;;;;;;;0.70;0.70;;;13.20;55.50;12.90;96464.00;;;;5052772;28;20195;-57
2023/01/01 09:42:07;;;;;;;0.77;0.77;;;13.30;54.90;13.10;96460.00;;;;5034834;28;20184;-57
2023/01/01 09:45:04;;;;;;;0.57;0.57;;;13.60;53.80;12.90;96465.00;;;;5034753;28;20224;-57
2023/01/01 09:47:38;;;;;;;0.80;0.80;;;13.50;53.20;12.90;96464.00;;;;5052678;28;20631;-58
2023/01/01 09:50:12;;;;;;;0.77;0.77;;;13.60;53.30;13.20;96463.00;;;;5034765;28;20593;-57
2023/01/01 09:52:49;;;;;;;1.33;1.27;;;13.70;52.10;13.20;96465.00;;;;5053151;28;20207;-57
2023/01/01 09:55:26;;;;;;;0.50;0.50;;;13.80;53.00;13.20;96472.00;;;;5052545;28;20265;-57
2023/01/01 09:57:55;;;;;;;1.03;0.97;;;13.80;52.50;13.30;96466.00;;;;5052613;28;20673;-57
2023/01/01 10:00:23;;;;;;;1.70;1.53;;;14.00;52.60;13.40;96467.00;;;;5052592;28;20188;-57
2023/01/01 10:03:24;;;;;;;2.27;1.23;;;14.10;50.90;13.60;96467.00;;;;5052843;28;20536;-57
2023/01/01 10:06:00;;;;;;;0.70;0.70;;;14.20;50.40;13.80;96456.00;;;;5052782;28;20215;-57
2023/01/01 10:08:53;;;;;;;1.00;1.00;;;;;13.70;96464.00;;;;5053364;28;20567;-57
2023/01/01 10:11:32;;;;;;;0.90;0.90;;;14.40;53.10;13.80;96471.00;;;;5052776;28;20623;-57
2023/01/01 10:14:04;;;;;;;1.13;1.13;;;;;14.00;96470.00;;;;5052391;28;20674;-57
2023/01/01 10:16:37;;;;;;;0.63;0.63;;;14.60;49.10;14.00;96469.00;;;;5052680;28;20188;-57
2023/01/01 10:19:24;;;;;;;1.20;1.20;;;14.60;50.00;14.20;96473.00;;;;5052432;28;20234;-57
2023/01/01 10:21:53;;;;;;;0.73;0.73;;;;;14.30;96465.00;;;;5052406;28;20189;-57
2023/01/01 10:24:38;;;;;;;0.93;0.93;;;14.80;49.90;14.30;96469.00;;;;5052563;28;20611;-57
2023/01/01 10:27:12;;;;;;;1.17;1.17;;;14.80;54.70;14.20;96466.00;;;;5052371;28;20180;-58
2023/01/01 10:29:44;;;;;;;0.70;0.70;;;;;14.30;96466.00;;;;5052290;28;20238;-57
2023/01/01 10:32:27;;;;;;;0.73;0.73;;;14.80;47.90;14.40;96464.00;;;;5052516;28;20173;-57
2023/01/01 10:34:56;;;;;;;2.37;1.43;;;15.00;48.60;14.60;96459.00;;;;5052162;28;20220;-57
2023/01/01 10:37:25;;;;;;;0.77;0.77;;;15.20;48.60;14.90;96460.00;;;;5052206;28;20196;-58
2023/01/01 10:39:52;;;;;;;0.70;0.70;;;15.30;48.00;14.90;96448.00;;;;5052252;28;20651;-57
2023/01/01 10:42:20;;;;;;;1.07;0.97;;;15.40;47.40;15.00;96448.00;;;;5053036;28;20200;-57
2023/01/01 10:44:52;;;;;;;1.40;1.40;;;15.50;47.70;15.20;96442.00;;;;5055537;28;20224;-57
2023/01/01 10:47:28;;;;;;;1.20;1.20;;;15.80;45.90;15.30;96452.00;;;;5055810;28;20246;-57
2023/01/01 10:49:58;;;;;;;1.00;1.00;;;15.80;45.90;15.40;96454.00;;;;5055901;28;20177;-58
2023/01/01 10:52:30;;;;;;;1.90;1.60;;;15.90;44.80;15.50;96457.00;;;;5055553;28;20597;-57
2023/01/01 10:54:59;;;;;;;0.90;0.90;;;16.00;44.70;15.70;96442.00;;;;5056056;28;20239;-58
2023/01/01 10:57:37;;;;;;;0.90;0.90;;;16.10;44.80;15.90;96446.00;;;;5055588;28;20196;-58
2023/01/01 11:00:22;;;;;;;3.83;2.43;;;16.40;44.10;16.00;96444.00;;;;5055563;28;20267;-57
2023/01/01 11:03:17;;;;;;;1.20;1.20;;;16.50;42.80;16.00;96443.00;;;;5055493;28;20643;-58
2023/01/01 11:06:06;;;;;;;1.27;1.17;;;16.50;40.80;15.80;96441.00;;;;5041644;28;20224;-57
2023/01/01 11:08:37;;;;;;;1.40;1.13;;;16.30;39.30;16.10;96448.00;;;;5055321;28;20196;-57
2023/01/01 11:11:05;;;;;;;0.93;0.93;;;16.50;39.50;16.10;96438.00;;;;5055616;28;20641;-57
2023/01/01 11:13:34;;;;;;;0.60;0.60;;;;;16.20;96426.00;;;;5055413;28;20577;-57
2023/01/01 11:16:01;;;;;;;0.77;0.77;;;17.10;41.40;17.50;96412.00;;;;5055367;28;20270;-57
2023/01/01 11:18:34;;;;;;;0.87;0.87;;;17.70;36.30;18.10;96395.00;;;;5055067;28;20192;-57
2023/01/01 11:21:04;;;;;;;1.73;1.47;;;;;19.40;96395.00;;;;5055015;28;20195;-57
2023/01/01 11:23:34;;;;;;;0.80;0.80;;;19.70;31.50;19.90;96391.00;;;;5055003;28;20188;-57
2023/01/01 11:26:18;;;;;;;1.40;0.77;;;;;19.80;96385.00;;;;5054869;28;20195;-58
2023/01/01 11:29:01;;;;;;;0.83;0.83;;;20.30;29.90;20.80;96372.00;;;;5055242;28;20184;-57